Time;durP1;ratioP1;P1;durP2;ratioP2;P2;SDS_P1;SDS_P2;PMS_P1;PMS_P2;Temp;Humidity;BMP_temperature;BMP_pressure;BME280_temperature;BME280_humidity;BME280_pressure;Samples;Min_cycle;Max_cycle;Signal;HPM_P1;HPM_P2
2020/12/29 00:01:39;;;;;;;12.70;9.05;;;;;;;6.35;75.16;96281.41;6130788;23;20086;-85
2020/12/29 00:04:14;;;;;;;11.23;9.03;;;;;;;6.38;75.62;96284.59;6130597;23;20032;-86
2020/12/29 00:06:45;;;;;;;12.05;9.27;;;;;;;6.41;75.50;96282.63;6130268;23;20300;-86
2020/12/29 00:09:12;;;;;;;13.40;10.25;;;;;;;6.44;75.94;96290.19;6173789;23;20028;-89
2020/12/29 00:11:40;;;;;;;12.10;9.05;;;;;;;6.44;75.49;96298.00;6164261;23;20351;-89
2020/12/29 00:14:06;;;;;;;12.45;9.27;;;;;;;6.45;75.53;96295.25;6162298;23;20021;-87
2020/12/29 00:16:32;;;;;;;13.32;9.95;;;;;;;6.47;75.54;96292.50;6164413;23;20028;-88
2020/12/29 00:18:58;;;;;;;14.32;9.15;;;;;;;6.48;75.73;96294.13;6164246;23;20025;-88
2020/12/29 00:21:25;;;;;;;13.55;9.52;;;;;;;6.49;75.52;96291.38;6192009;23;20025;-87
2020/12/29 00:23:52;;;;;;;11.70;8.93;;;;;;;6.50;75.59;96286.97;6164161;23;20024;-87
2020/12/29 00:26:25;;;;;;;12.35;8.40;;;;;;;6.50;75.58;96286.97;6164539;23;20067;-87
2020/12/29 00:28:52;;;;;;;11.90;9.65;;;;;;;6.53;75.59;96278.03;6163663;23;20476;-88
2020/12/29 00:31:21;;;;;;;13.95;9.45;;;;;;;6.53;75.28;96276.22;6163483;23;20021;-87
2020/12/29 00:33:50;;;;;;;9.60;7.50;;;;;;;6.53;75.37;96278.84;6165324;23;20025;-88
2020/12/29 00:36:16;;;;;;;14.60;9.45;;;;;;;6.55;75.42;96278.69;6164404;23;20029;-87
2020/12/29 00:38:42;;;;;;;14.05;9.52;;;;;;;6.56;75.38;96275.94;6190417;23;20029;-88
2020/12/29 00:41:10;;;;;;;11.63;9.32;;;;;;;6.57;75.39;96266.28;6164250;23;20032;-87
2020/12/29 00:43:38;;;;;;;11.43;9.10;;;;;;;6.58;75.20;96265.34;6166157;23;20392;-87
2020/12/29 00:46:08;;;;;;;10.20;8.50;;;;;;;6.57;74.82;96261.88;6189622;23;20352;-87
2020/12/29 00:48:35;;;;;;;9.93;7.88;;;;;;;6.58;75.11;96263.53;6191699;23;20059;-87
2020/12/29 00:51:04;;;;;;;11.80;9.07;;;;;;;6.57;74.91;96263.66;6190566;23;20035;-89
2020/12/29 00:53:30;;;;;;;11.45;8.75;;;;;;;6.57;74.80;96261.88;6191352;23;20025;-88
2020/12/29 00:55:59;;;;;;;13.43;9.63;;;;;;;6.56;74.78;96269.88;6190671;23;20032;-88
2020/12/29 00:58:26;;;;;;;13.27;9.55;;;;;;;6.56;74.65;96256.81;6162817;23;20463;-88
2020/12/29 01:00:52;;;;;;;13.40;9.80;;;;;;;6.54;74.73;96256.16;6163128;23;20029;-87
2020/12/29 01:03:18;;;;;;;12.80;9.98;;;;;;;6.51;74.34;96254.66;6190108;23;20061;-88
2020/12/29 01:05:45;;;;;;;13.05;9.55;;;;;;;6.49;74.13;96259.19;6164428;23;20025;-88
2020/12/29 01:08:13;;;;;;;17.30;10.82;;;;;;;6.45;74.44;96263.06;6189105;23;20459;-87
2020/12/29 01:10:40;;;;;;;14.50;10.15;;;;;;;6.43;74.53;96258.00;6138388;23;20024;-88
2020/12/29 01:13:07;;;;;;;11.43;8.38;;;;;;;6.42;74.20;96260.78;6165539;23;20031;-87
2020/12/29 01:15:36;;;;;;;16.88;9.88;;;;;;;6.38;74.31;96265.47;6166276;23;20025;-88
2020/12/29 01:18:05;;;;;;;12.95;10.05;;;;;;;6.36;74.58;96276.06;6192276;23;20044;-88
2020/12/29 01:20:31;;;;;;;12.18;9.52;;;;;;;6.35;74.58;96270.97;6166378;23;20017;-87
2020/12/29 01:23:00;;;;;;;13.63;10.25;;;;;;;6.32;74.47;96279.94;6191318;23;20028;-88
2020/12/29 01:25:26;;;;;;;13.85;10.40;;;;;;;6.32;74.73;96279.13;6118898;23;20092;-88
2020/12/29 01:27:52;;;;;;;12.45;10.05;;;;;;;6.31;74.77;96283.50;6190262;23;20028;-88
2020/12/29 01:30:19;;;;;;;14.10;10.40;;;;;;;6.30;74.76;96278.44;6166593;23;20020;-88
2020/12/29 01:32:45;;;;;;;13.52;10.30;;;;;;;6.29;75.23;96282.84;6194245;23;20027;-87
2020/12/29 01:35:11;;;;;;;14.55;9.82;;;;;;;6.29;75.06;96284.63;6165392;23;20021;-89
2020/12/29 01:37:41;;;;;;;12.27;10.27;;;;;;;6.28;74.90;96286.41;6163404;23;20466;-88
2020/12/29 01:40:13;;;;;;;14.98;10.13;;;;;;;6.27;74.81;96287.38;6189720;23;20024;-89
2020/12/29 01:42:46;;;;;;;12.65;9.45;;;;;;;6.25;74.72;96274.47;6165377;23;20017;-89
2020/12/29 01:45:18;;;;;;;14.35;11.00;;;;;;;6.23;74.56;96280.81;6165392;23;20464;-87
2020/12/29 01:47:47;;;;;;;12.68;9.80;;;;;;;6.20;74.56;96283.75;6189723;23;20020;-88
2020/12/29 01:50:17;;;;;;;14.27;9.18;;;;;;;6.18;74.94;96285.66;6191716;23;20056;-88
2020/12/29 01:52:55;;;;;;;11.52;9.65;;;;;;;6.13;74.33;96291.31;6190459;23;20021;-87
2020/12/29 01:55:26;;;;;;;13.65;8.82;;;;;;;6.11;74.40;96298.47;6164271;23;20025;-87
2020/12/29 01:58:04;;;;;;;12.05;9.75;;;;;;;6.05;74.18;96294.66;6189950;23;20124;-88
2020/12/29 02:00:33;;;;;;;10.45;8.50;;;;;;;6.06;74.97;96295.47;6139005;23;20021;-87
2020/12/29 02:03:00;;;;;;;11.18;8.40;;;;;;;6.03;75.10;96294.00;6141493;23;20025;-88
2020/12/29 02:05:27;;;;;;;12.55;9.85;;;;;;;6.02;75.02;96291.50;6164268;23;20025;-87
2020/12/29 02:07:54;;;;;;;12.27;9.45;;;;;;;6.02;75.12;96297.50;6168043;23;20017;-88
2020/12/29 02:10:22;;;;;;;10.10;8.52;;;;;;;6.02;75.26;96304.53;6166138;23;20024;-87
2020/12/29 02:12:48;;;;;;;11.93;9.10;;;;;;;6.02;75.14;96307.94;6193694;23;20028;-87
2020/12/29 02:15:15;;;;;;;11.98;8.68;;;;;;;6.02;75.06;96302.72;6167466;23;20028;-87
2020/12/29 02:17:41;;;;;;;10.80;8.75;;;;;;;6.04;75.13;96302.63;6166024;23;20029;-87
2020/12/29 02:20:07;;;;;;;10.93;9.00;;;;;;;6.03;75.23;96304.44;6163789;23;20029;-88
2020/12/29 02:22:34;;;;;;;12.23;9.25;;;;;;;6.04;75.10;96305.22;6163552;23;20047;-88
2020/12/29 02:25:02;;;;;;;10.82;8.77;;;;;;;6.03;74.94;96309.66;6193070;23;20021;-87
2020/12/29 02:27:31;;;;;;;10.55;8.95;;;;;;;6.04;75.30;96315.69;6162849;23;20024;-87
2020/12/29 02:29:58;;;;;;;11.05;8.13;;;;;;;6.04;75.23;96321.72;6190235;23;20490;-88
2020/12/29 02:32:25;;;;;;;12.10;8.55;;;;;;;6.05;75.20;96319.97;6164917;23;20021;-87
2020/12/29 02:34:52;;;;;;;9.52;8.25;;;;;;;6.03;75.16;96325.31;6166497;23;20025;-87
2020/12/29 02:37:19;;;;;;;9.60;7.53;;;;;;;6.03;75.23;96322.72;6163679;23;20021;-88
2020/12/29 02:39:50;;;;;;;10.70;7.85;;;;;;;6.02;75.14;96323.63;6164131;23;20021;-87
2020/12/29 02:42:16;;;;;;;8.95;7.20;;;;;;;6.02;75.25;96321.00;6164616;23;20036;-88
2020/12/29 02:44:43;;;;;;;9.63;7.80;;;;;;;6.01;74.90;96319.38;6164440;23;20347;-88
2020/12/29 02:47:11;;;;;;;9.65;8.05;;;;;;;5.98;74.91;96317.88;6189910;23;20020;-87
2020/12/29 02:49:38;;;;;;;8.68;7.40;;;;;;;5.97;74.81;96318.00;6164895;23;20025;-87
2020/12/29 02:52:07;;;;;;;9.70;7.20;;;;;;;5.94;74.86;96326.16;6164007;23;20382;-88
2020/12/29 02:54:34;;;;;;;9.05;7.30;;;;;;;5.91;75.00;96322.00;6191903;23;20021;-88
2020/12/29 02:57:01;;;;;;;9.90;7.88;;;;;;;5.91;75.09;96323.81;6188745;23;20040;-86
2020/12/29 02:59:27;;;;;;;9.60;7.80;;;;;;;5.90;75.22;96330.81;6189632;23;20029;-87
2020/12/29 03:01:54;;;;;;;9.55;7.15;;;;;;;5.91;75.49;96340.28;6191101;23;20021;-87
2020/12/29 03:04:20;;;;;;;9.05;7.68;;;;;;;5.91;75.46;96339.47;6195022;23;20020;-87
2020/12/29 03:06:47;;;;;;;10.88;8.23;;;;;;;5.91;75.42;96344.72;6165863;23;20017;-88
2020/12/29 03:09:14;;;;;;;9.35;7.15;;;;;;;5.92;75.48;96343.72;6166344;23;20024;-87
2020/12/29 03:11:40;;;;;;;8.73;7.68;;;;;;;5.92;75.46;96343.72;6188717;23;20021;-87
2020/12/29 03:14:13;;;;;;;8.35;6.95;;;;;;;5.89;75.08;96342.22;6165698;23;20025;-87
2020/12/29 03:16:41;;;;;;;8.80;7.50;;;;;;;5.90;75.24;96349.09;6163890;23;20032;-88
2020/12/29 03:19:24;;;;;;;8.38;6.82;;;;;;;5.89;75.01;96350.06;6167932;23;20021;-88
2020/12/29 03:21:51;;;;;;;9.48;7.25;;;;;;;5.89;75.27;96359.66;6191628;23;20025;-88
2020/12/29 03:24:17;;;;;;;9.32;6.85;;;;;;;5.87;75.49;96363.25;6163922;23;20360;-87
2020/12/29 03:26:43;;;;;;;10.77;6.93;;;;;;;5.86;75.27;96360.78;6188799;23;20028;-86
2020/12/29 03:29:09;;;;;;;8.18;6.47;;;;;;;5.85;75.21;96361.75;6191605;23;20029;-87
2020/12/29 03:31:38;;;;;;;8.35;6.70;;;;;;;5.85;75.19;96373.03;6164532;23;20080;-88
2020/12/29 03:34:05;;;;;;;8.40;6.03;;;;;;;5.83;75.06;96372.34;6164266;23;20075;-87
2020/12/29 03:36:33;;;;;;;9.75;6.90;;;;;;;5.81;74.77;96376.88;6189547;23;20024;-88
2020/12/29 03:39:00;;;;;;;10.43;6.93;;;;;;;5.80;75.13;96384.84;6162001;23;20468;-87
2020/12/29 03:41:26;;;;;;;9.52;6.55;;;;;;;5.78;75.22;96392.81;6192743;23;20025;-88
2020/12/29 03:43:53;;;;;;;8.23;6.35;;;;;;;5.75;74.96;96387.88;6163950;23;20021;-87
2020/12/29 03:46:19;;;;;;;7.65;5.95;;;;;;;5.74;75.35;96394.06;6161741;23;20025;-87
2020/12/29 03:48:45;;;;;;;9.27;6.63;;;;;;;5.74;75.52;96391.44;6188882;23;20021;-87
2020/12/29 03:51:12;;;;;;;8.40;6.68;;;;;;;5.74;75.49;96391.44;6164249;23;20017;-87
2020/12/29 03:53:38;;;;;;;8.90;6.90;;;;;;;5.73;75.10;96395.03;6164841;23;20079;-87
2020/12/29 03:56:05;;;;;;;8.90;6.82;;;;;;;5.71;74.94;96392.56;6191687;23;20025;-87
2020/12/29 03:58:31;;;;;;;7.03;6.25;;;;;;;5.69;75.02;96397.06;6190534;23;20355;-88
2020/12/29 04:00:57;;;;;;;8.32;6.60;;;;;;;5.67;74.97;96395.56;6164895;23;20017;-87
2020/12/29 04:03:23;;;;;;;8.18;6.47;;;;;;;5.65;75.17;96400.13;6189759;23;20031;-88
2020/12/29 04:05:55;;;;;;;8.05;6.85;;;;;;;5.61;75.03;96395.19;6168731;23;20021;-87
2020/12/29 04:08:21;;;;;;;7.40;6.18;;;;;;;5.64;75.37;96390.66;6166315;23;20049;-86
2020/12/29 04:10:49;;;;;;;8.30;6.82;;;;;;;5.63;75.23;96389.00;6164109;23;20032;-88
2020/12/29 04:13:17;;;;;;;9.18;7.28;;;;;;;5.63;75.07;96397.66;6164255;23;20021;-87
2020/12/29 04:15:43;;;;;;;9.10;6.85;;;;;;;5.61;75.26;96387.34;6190772;23;20467;-88
2020/12/29 04:18:10;;;;;;;8.77;6.60;;;;;;;5.60;75.10;96390.94;6190302;23;20351;-88
2020/12/29 04:20:36;;;;;;;7.85;6.25;;;;;;;5.59;75.36;96389.28;6167078;23;20024;-88
2020/12/29 04:23:03;;;;;;;7.65;5.80;;;;;;;5.57;75.05;96396.41;6164515;23;20032;-87
2020/12/29 04:25:29;;;;;;;8.10;6.57;;;;;;;5.55;75.20;96393.13;6167660;23;20344;-87
2020/12/29 04:28:00;;;;;;;9.35;6.22;;;;;;;5.54;75.17;96394.09;6163781;23;20527;-87
2020/12/29 04:30:29;;;;;;;7.10;5.47;;;;;;;5.55;75.20;96400.13;6120732;23;20028;-87
2020/12/29 04:32:56;;;;;;;8.35;6.18;;;;;;;5.54;75.34;96401.09;6165623;23;20044;-87
2020/12/29 04:35:24;;;;;;;7.85;5.90;;;;;;;5.54;75.19;96401.09;6167584;23;20460;-87
2020/12/29 04:37:50;;;;;;;8.43;6.30;;;;;;;5.54;75.21;96398.50;6164770;23;20043;-87
2020/12/29 04:40:17;;;;;;;10.70;6.43;;;;;;;5.55;75.59;96403.56;6190131;23;20028;-87
2020/12/29 04:42:43;;;;;;;7.07;6.07;;;;;;;5.55;75.28;96406.19;6167736;23;20021;-87
2020/12/29 04:45:10;;;;;;;9.43;5.88;;;;;;;5.56;75.37;96407.81;6167117;23;20032;-86
2020/12/29 04:47:38;;;;;;;8.35;6.18;;;;;;;5.57;75.23;96408.66;6171177;23;20052;-86
2020/12/29 04:50:07;;;;;;;8.38;6.65;;;;;;;5.56;75.28;96402.59;6164866;23;20404;-87
2020/12/29 04:52:35;;;;;;;7.68;6.55;;;;;;;5.56;74.71;96413.03;6169519;23;20027;-87
2020/12/29 04:55:31;;;;;;;7.85;6.18;;;;;;;5.53;74.16;96408.09;6171540;23;20104;-88
2020/12/29 04:57:59;;;;;;;7.18;5.70;;;;;;;5.52;74.57;96403.84;6193855;23;20028;-88
2020/12/29 05:00:30;;;;;;;7.40;6.22;;;;;;;5.49;74.91;96404.13;6166048;23;20021;-86
2020/12/29 05:02:57;;;;;;;8.50;6.80;;;;;;;5.49;74.93;96404.13;6169846;23;20028;-88
2020/12/29 05:05:23;;;;;;;7.55;6.07;;;;;;;5.47;74.79;96404.25;6166485;23;20021;-87
2020/12/29 05:07:50;;;;;;;8.60;6.43;;;;;;;5.43;74.44;96409.91;6193009;23;20029;-88
2020/12/29 05:10:17;;;;;;;7.57;6.65;;;;;;;5.39;73.99;96411.13;6169740;23;20024;-87
2020/12/29 05:12:50;;;;;;;11.18;6.85;;;;;;;5.31;74.00;96417.03;6169219;23;20025;-87
2020/12/29 05:15:20;;;;;;;8.68;7.05;;;;;;;5.27;74.47;96419.09;6167000;23;20025;-87
2020/12/29 05:17:48;;;;;;;8.52;5.95;;;;;;;5.23;74.46;96415.09;6165880;23;20399;-87
2020/12/29 05:20:21;;;;;;;8.30;6.47;;;;;;;5.18;74.01;96422.53;6196491;23;20035;-87
2020/12/29 05:22:49;;;;;;;8.73;6.68;;;;;;;5.14;74.22;96421.97;6168600;23;20411;-86
2020/12/29 05:25:17;;;;;;;8.23;6.70;;;;;;;5.11;74.38;96421.41;6166129;23;20075;-88
2020/12/29 05:27:46;;;;;;;9.23;6.75;;;;;;;5.06;74.48;96414.00;6192873;23;20048;-88
2020/12/29 05:30:14;;;;;;;10.00;7.18;;;;;;;5.00;74.13;96424.97;6191513;23;20017;-86
2020/12/29 05:32:40;;;;;;;9.68;7.13;;;;;;;4.95;74.66;96422.78;6166314;23;20021;-88
2020/12/29 05:35:12;;;;;;;8.07;6.60;;;;;;;4.88;74.41;96435.53;6169511;23;20027;-87
2020/12/29 05:37:42;;;;;;;8.77;6.50;;;;;;;4.86;74.83;96427.00;6194868;23;20028;-86
2020/12/29 05:40:28;;;;;;;9.32;7.47;;;;;;;4.79;74.38;96433.72;6167210;23;20017;-88
2020/12/29 05:42:57;;;;;;;9.68;6.97;;;;;;;4.79;74.45;96442.34;6167153;23;20021;-87
2020/12/29 05:45:29;;;;;;;10.07;7.15;;;;;;;4.73;74.29;96442.91;6170167;23;20025;-87
2020/12/29 05:47:56;;;;;;;12.38;7.88;;;;;;;4.71;74.48;96438.78;6167126;23;20032;-87
2020/12/29 05:50:27;;;;;;;11.60;8.25;;;;;;;4.65;74.15;96446.16;6192444;23;20021;-88
2020/12/29 05:53:00;;;;;;;10.00;6.93;;;;;;;4.61;74.30;96454.38;6195766;23;20021;-88
2020/12/29 05:55:26;;;;;;;10.05;7.80;;;;;;;4.57;74.18;96462.44;6193628;23;20039;-88
2020/12/29 05:58:07;;;;;;;12.00;7.78;;;;;;;4.50;74.25;96460.50;6190280;23;20031;-88
2020/12/29 06:00:35;;;;;;;11.88;7.15;;;;;;;4.48;74.72;96463.22;6192704;23;20021;-88
2020/12/29 06:03:03;;;;;;;11.38;7.20;;;;;;;4.46;74.80;96465.16;6167957;23;20467;-88
2020/12/29 06:05:30;;;;;;;10.27;7.13;;;;;;;4.40;75.25;96469.09;6167047;23;20025;-87
2020/12/29 06:07:59;;;;;;;10.68;7.63;;;;;;;4.40;75.77;96470.88;6163604;23;20020;-88
2020/12/29 06:10:27;;;;;;;10.35;7.75;;;;;;;4.40;75.68;96483.88;6161401;23;20373;-85
2020/12/29 06:12:58;;;;;;;10.70;8.55;;;;;;;4.39;75.56;96482.25;6161249;23;20025;-87
2020/12/29 06:15:27;;;;;;;13.55;7.60;;;;;;;4.43;76.04;96492.28;6187286;23;20028;-85
2020/12/29 06:17:57;;;;;;;11.20;7.97;;;;;;;4.43;75.88;96492.28;6161428;23;20021;-87
2020/12/29 06:20:29;;;;;;;11.60;8.80;;;;;;;4.46;75.96;96496.41;6161438;23;20025;-85
2020/12/29 06:23:00;;;;;;;12.07;8.73;;;;;;;4.47;75.86;96499.81;6160743;23;20032;-85
2020/12/29 06:25:31;;;;;;;10.65;8.43;;;;;;;4.47;75.83;96503.25;6161299;23;20028;-84
2020/12/29 06:28:01;;;;;;;10.45;8.60;;;;;;;4.48;75.86;96506.69;6161207;23;20032;-86
2020/12/29 06:30:27;;;;;;;10.15;8.20;;;;;;;4.49;75.93;96510.94;6161512;23;20017;-86
2020/12/29 06:32:55;;;;;;;11.40;7.78;;;;;;;4.49;76.09;96516.16;6161702;23;20028;-86
2020/12/29 06:35:22;;;;;;;12.30;8.32;;;;;;;4.50;75.98;96523.00;6186862;23;20029;-87
2020/12/29 06:38:14;;;;;;;12.50;8.45;;;;;;;4.49;75.78;96524.78;6187304;23;20021;-87
2020/12/29 06:40:42;;;;;;;11.50;8.40;;;;;;;4.51;75.79;96529.88;6161386;23;20028;-86
2020/12/29 06:43:26;;;;;;;10.85;9.32;;;;;;;4.51;75.69;96533.31;6165133;23;20067;-87
2020/12/29 06:46:09;;;;;;;11.60;9.18;;;;;;;4.47;75.43;96528.47;6187170;23;20029;-85
2020/12/29 06:48:35;;;;;;;10.57;8.27;;;;;;;4.50;76.05;96529.06;6160402;23;20464;-85
2020/12/29 06:51:10;;;;;;;12.70;9.40;;;;;;;4.50;75.45;96536.03;6186982;23;20025;-85
2020/12/29 06:53:38;;;;;;;10.88;8.93;;;;;;;4.50;75.96;96533.44;6160568;23;20032;-84
2020/12/29 06:56:11;;;;;;;11.35;9.18;;;;;;;4.50;76.09;96536.88;6187295;23;20376;-84
2020/12/29 06:58:38;;;;;;;12.43;9.13;;;;;;;4.51;75.90;96538.50;6186956;23;20021;-85
2020/12/29 07:01:27;;;;;;;12.10;8.80;;;;;;;4.48;75.65;96550.97;6160844;23;20017;-85
2020/12/29 07:04:07;;;;;;;11.30;8.52;;;;;;;4.47;75.75;96552.75;6160127;23;20025;-86
2020/12/29 07:06:35;;;;;;;11.10;8.93;;;;;;;4.50;75.87;96568.13;6186506;23;20455;-85
2020/12/29 07:09:07;;;;;;;11.38;8.70;;;;;;;4.49;75.76;96561.25;6186218;23;20032;-85
2020/12/29 07:11:34;;;;;;;11.52;8.85;;;;;;;4.53;76.28;96567.84;6186564;23;20503;-85
2020/12/29 07:14:03;;;;;;;11.05;8.95;;;;;;;4.53;76.01;96572.25;6160732;23;20029;-85
2020/12/29 07:16:29;;;;;;;11.70;8.65;;;;;;;4.55;76.23;96578.16;6160982;23;20025;-84
2020/12/29 07:19:10;;;;;;;12.20;9.10;;;;;;;4.51;75.43;96574.13;6186571;23;20021;-84
2020/12/29 07:21:36;;;;;;;12.63;9.45;;;;;;;4.54;76.12;96572.13;6160975;23;20021;-85
2020/12/29 07:24:07;;;;;;;13.40;9.90;;;;;;;4.52;75.54;96575.81;6160278;23;20021;-84
2020/12/29 07:26:40;;;;;;;11.95;9.05;;;;;;;4.52;75.76;96574.03;6186703;23;20092;-84
2020/12/29 07:29:07;;;;;;;11.70;8.77;;;;;;;4.51;75.72;96576.75;6160412;23;20073;-85
2020/12/29 07:31:36;;;;;;;13.27;9.35;;;;;;;4.50;75.79;96580.31;6186009;23;20464;-85
2020/12/29 07:34:02;;;;;;;14.00;8.73;;;;;;;4.49;75.54;96587.28;6160233;23;20029;-85
2020/12/29 07:36:31;;;;;;;12.98;9.15;;;;;;;4.48;75.80;96600.47;6160503;23;20105;-84
2020/12/29 07:38:57;;;;;;;13.93;9.15;;;;;;;4.47;75.69;96602.22;6160494;23;20028;-84
2020/12/29 07:41:23;;;;;;;11.88;9.48;;;;;;;4.47;75.86;96612.66;6160059;23;20021;-84
2020/12/29 07:43:50;;;;;;;14.18;9.23;;;;;;;4.47;76.03;96615.25;6186180;23;20047;-85
2020/12/29 07:46:16;;;;;;;12.00;8.30;;;;;;;4.47;75.92;96624.84;6160533;23;20029;-84
2020/12/29 07:48:51;;;;;;;14.10;9.38;;;;;;;4.46;76.01;96621.44;6185924;23;20025;-84
2020/12/29 07:51:18;;;;;;;12.45;8.65;;;;;;;4.47;75.95;96627.44;6160513;23;20021;-84
2020/12/29 07:53:44;;;;;;;11.07;9.32;;;;;;;4.45;76.01;96632.78;6185624;23;20470;-85
2020/12/29 07:56:10;;;;;;;12.18;9.10;;;;;;;4.47;76.19;96628.28;6185914;23;20032;-84
2020/12/29 07:58:36;;;;;;;12.95;9.85;;;;;;;4.48;75.93;96639.53;6160315;23;20344;-84
2020/12/29 08:01:03;;;;;;;12.45;9.50;;;;;;;4.48;75.89;96644.75;6186304;23;20025;-84
2020/12/29 08:03:29;;;;;;;13.27;9.25;;;;;;;4.48;76.09;96648.16;6159986;23;20021;-84
2020/12/29 08:05:55;;;;;;;14.30;9.43;;;;;;;4.48;76.24;96650.75;6160228;23;20321;-84
2020/12/29 08:08:22;;;;;;;14.57;9.52;;;;;;;4.49;76.15;96660.22;6185752;23;20036;-85
2020/12/29 08:10:48;;;;;;;13.60;9.85;;;;;;;4.50;76.10;96669.72;6185785;23;20021;-84
2020/12/29 08:13:22;;;;;;;12.85;9.57;;;;;;;4.48;75.45;96658.56;6159540;23;20025;-85
2020/12/29 08:15:49;;;;;;;16.67;9.57;;;;;;;4.51;76.38;96666.16;6160259;23;20025;-84
2020/12/29 08:18:18;;;;;;;17.02;10.43;;;;;;;4.53;76.15;96673.84;6159968;23;20021;-85
2020/12/29 08:20:54;;;;;;;13.40;9.50;;;;;;;4.53;76.20;96677.25;6185568;23;20478;-85
2020/12/29 08:23:22;;;;;;;18.17;10.00;;;;;;;4.55;76.29;96683.19;6186179;23;20021;-84
2020/12/29 08:25:59;;;;;;;16.60;10.15;;;;;;;4.55;75.56;96682.34;6159614;23;20460;-84
2020/12/29 08:28:27;;;;;;;14.93;10.70;;;;;;;4.59;76.02;96693.34;6159528;23;20025;-84
2020/12/29 08:30:54;;;;;;;12.35;9.50;;;;;;;4.58;75.97;96682.09;6159505;23;20028;-84
2020/12/29 08:33:24;;;;;;;14.40;9.43;;;;;;;4.57;75.95;96693.47;6159737;23;20028;-84
2020/12/29 08:35:54;;;;;;;15.77;9.90;;;;;;;4.59;75.83;96703.78;6160083;23;20025;-85
2020/12/29 08:38:26;;;;;;;14.52;9.90;;;;;;;4.57;75.60;96701.28;6185822;23;20337;-84
2020/12/29 08:41:22;;;;;;;15.20;9.73;;;;;;;4.56;75.31;96705.66;6186050;23;20017;-84
2020/12/29 08:43:50;;;;;;;12.50;9.43;;;;;;;4.58;75.83;96708.16;6185398;23;20702;-84
2020/12/29 08:46:22;;;;;;;14.05;9.98;;;;;;;4.59;75.77;96708.97;6185936;23;20028;-84
2020/12/29 08:48:58;;;;;;;17.48;10.43;;;;;;;4.56;75.22;96710.03;6185675;23;20025;-84
2020/12/29 08:51:27;;;;;;;15.45;10.20;;;;;;;4.58;75.98;96721.16;6159628;23;20456;-84
2020/12/29 08:54:06;;;;;;;15.80;10.90;;;;;;;4.57;75.95;96729.94;6185648;23;20024;-84
2020/12/29 08:56:32;;;;;;;16.88;10.70;;;;;;;4.57;75.87;96724.72;6159891;23;20360;-84
2020/12/29 08:59:11;;;;;;;12.30;9.88;;;;;;;4.53;75.67;96734.56;6159685;23;20352;-84
2020/12/29 09:01:40;;;;;;;12.73;9.85;;;;;;;4.55;76.03;96735.28;6185648;23;20021;-84
2020/12/29 09:04:30;;;;;;;14.70;10.00;;;;;;;4.52;74.96;96738.13;6159717;23;20017;-84
2020/12/29 09:07:15;;;;;;;19.63;9.65;;;;;;;4.52;75.13;96732.91;6159836;23;20395;-84
2020/12/29 09:09:50;;;;;;;15.88;9.23;;;;;;;4.53;75.51;96741.56;6185600;23;20044;-84
2020/12/29 09:12:22;;;;;;;20.60;9.75;;;;;;;4.55;75.63;96750.06;6185333;23;20025;-84
2020/12/29 09:14:55;;;;;;;14.07;9.95;;;;;;;4.56;76.15;96746.50;6185925;23;20032;-84
2020/12/29 09:17:23;;;;;;;12.65;9.65;;;;;;;4.59;76.66;96766.28;6186044;23;20360;-84
2020/12/29 09:20:08;;;;;;;14.55;9.75;;;;;;;4.57;75.77;96764.63;6159932;23;20017;-84
2020/12/29 09:22:46;;;;;;;12.85;9.80;;;;;;;4.63;76.75;96767.69;6185537;23;20021;-84
2020/12/29 09:25:30;;;;;;;15.02;9.70;;;;;;;4.65;76.21;96768.38;6185872;23;20021;-84
2020/12/29 09:28:13;;;;;;;16.65;10.05;;;;;;;4.67;75.93;96776.91;6185840;23;20028;-84
2020/12/29 09:30:46;;;;;;;14.82;9.75;;;;;;;4.71;76.26;96769.69;6159214;23;20017;-84
2020/12/29 09:33:19;;;;;;;10.95;7.43;;;;;;;4.74;76.11;96778.06;6160038;23;20084;-84
2020/12/29 09:35:45;;;;;;;;;;;;;;;4.80;75.54;96784.56;6188186;23;20021;-84
2020/12/29 09:38:14;;;;;;;16.58;9.57;;;;;;;4.86;76.26;96794.47;6161519;23;19927;-84
2020/12/29 09:41:00;;;;;;;15.02;9.95;;;;;;;4.87;76.47;96792.72;6187781;23;20381;-84
2020/12/29 09:43:27;;;;;;;15.95;10.13;;;;;;;4.88;76.50;96802.16;6188016;23;20021;-85
2020/12/29 09:45:53;;;;;;;17.08;10.32;;;;;;;4.89;76.59;96801.22;6161122;23;20020;-84
2020/12/29 09:48:19;;;;;;;12.88;8.80;;;;;;;4.91;76.29;96807.13;6187343;23;20021;-87
2020/12/29 09:50:46;;;;;;;13.40;8.73;;;;;;;4.92;76.37;96803.56;6161479;23;20048;-84
2020/12/29 09:53:12;;;;;;;13.90;10.07;;;;;;;4.91;75.98;96807.13;6161157;23;20048;-84
2020/12/29 09:55:38;;;;;;;12.90;7.97;;;;;;;4.92;76.29;96811.41;6187510;23;20021;-84
2020/12/29 09:58:04;;;;;;;13.35;9.63;;;;;;;4.92;76.10;96804.41;6160939;23;20482;-84
2020/12/29 10:00:31;;;;;;;15.70;9.77;;;;;;;4.93;76.20;96818.25;6160946;23;20028;-84
2020/12/29 10:02:58;;;;;;;14.15;9.27;;;;;;;4.93;76.44;96824.31;6160837;23;20025;-84
2020/12/29 10:05:25;;;;;;;14.65;9.95;;;;;;;4.94;76.01;96827.75;6187366;23;20021;-84
2020/12/29 10:07:52;;;;;;;16.15;11.02;;;;;;;4.93;76.03;96823.47;6161113;23;20033;-84
2020/12/29 10:10:18;;;;;;;11.98;8.82;;;;;;;4.93;76.21;96819.09;6160919;23;20467;-84
2020/12/29 10:12:44;;;;;;;14.98;10.10;;;;;;;4.95;76.24;96824.19;6161003;23;20021;-84
2020/12/29 10:15:11;;;;;;;14.15;9.02;;;;;;;4.95;76.35;96829.41;6161358;23;20029;-84
2020/12/29 10:17:37;;;;;;;14.35;9.32;;;;;;;4.95;76.12;96832.00;6187139;23;20025;-84
2020/12/29 10:20:04;;;;;;;14.57;9.18;;;;;;;4.95;76.54;96826.78;6161155;23;20025;-84
2020/12/29 10:22:30;;;;;;;15.68;9.75;;;;;;;4.98;76.41;96834.38;6160798;23;20022;-84
2020/12/29 10:24:56;;;;;;;16.55;9.60;;;;;;;4.98;76.25;96836.13;6187177;23;20036;-84
2020/12/29 10:27:23;;;;;;;14.85;9.07;;;;;;;5.00;76.21;96844.66;6161150;23;20029;-84
2020/12/29 10:29:50;;;;;;;17.38;9.27;;;;;;;5.01;76.56;96833.28;6160797;23;20021;-84
2020/12/29 10:32:21;;;;;;;17.70;10.48;;;;;;;5.02;76.43;96846.22;6187187;23;20024;-84
2020/12/29 10:34:48;;;;;;;17.15;11.18;;;;;;;5.03;76.33;96845.25;6160566;23;20063;-84
2020/12/29 10:37:14;;;;;;;18.88;10.88;;;;;;;5.04;76.13;96848.66;6186732;23;20025;-84
2020/12/29 10:39:40;;;;;;;19.30;11.98;;;;;;;5.05;76.43;96858.97;6160478;23;20032;-84
2020/12/29 10:42:06;;;;;;;18.58;12.70;;;;;;;5.05;76.61;96853.75;6160644;23;20076;-84
2020/12/29 10:44:32;;;;;;;22.38;12.73;;;;;;;5.07;76.69;96864.91;6160319;23;20028;-83
2020/12/29 10:46:59;;;;;;;21.85;13.15;;;;;;;5.10;76.50;96861.22;6160638;23;20033;-84
2020/12/29 10:49:25;;;;;;;23.00;13.82;;;;;;;5.11;76.73;96869.84;6186477;23;20025;-84
2020/12/29 10:51:51;;;;;;;24.38;14.40;;;;;;;5.12;76.47;96861.91;6187257;23;20026;-84
2020/12/29 10:54:20;;;;;;;26.15;15.60;;;;;;;5.14;76.18;96864.38;6186704;23;20020;-84
2020/12/29 10:56:46;;;;;;;25.52;15.77;;;;;;;5.16;76.44;96867.72;6187062;23;20344;-84
2020/12/29 10:59:12;;;;;;;26.98;16.02;;;;;;;5.17;76.52;96864.16;6187149;23;20028;-84
2020/12/29 11:01:39;;;;;;;30.77;16.45;;;;;;;5.18;76.76;96860.59;6187152;23;20017;-84
2020/12/29 11:04:05;;;;;;;27.45;15.40;;;;;;;5.20;76.61;96861.31;6160501;23;20024;-84
2020/12/29 11:06:31;;;;;;;28.08;17.58;;;;;;;5.20;76.53;96866.50;6160852;23;20028;-84
2020/12/29 11:08:57;;;;;;;31.30;18.40;;;;;;;5.21;76.53;96876.78;6160371;23;20032;-84
2020/12/29 11:11:23;;;;;;;27.08;16.27;;;;;;;5.23;76.58;96874.06;6186802;23;20028;-84
2020/12/29 11:13:49;;;;;;;28.30;17.60;;;;;;;5.24;76.56;96870.53;6186657;23;20021;-84
2020/12/29 11:16:18;;;;;;;30.55;17.27;;;;;;;5.25;76.75;96872.19;6160661;23;20029;-85
2020/12/29 11:18:45;;;;;;;33.95;19.38;;;;;;;5.27;76.76;96885.09;6186373;23;20025;-84
2020/12/29 11:21:15;;;;;;;29.10;17.95;;;;;;;5.27;76.30;96883.28;6160620;23;20025;-84
2020/12/29 11:23:41;;;;;;;35.83;19.17;;;;;;;5.29;76.56;96891.84;6186546;23;20021;-84
2020/12/29 11:26:07;;;;;;;27.45;18.23;;;;;;;5.30;76.61;96893.50;6186200;23;20485;-84
2020/12/29 11:28:34;;;;;;;34.80;18.80;;;;;;;5.30;76.44;96896.09;6186547;23;20075;-84
2020/12/29 11:31:00;;;;;;;31.38;20.33;;;;;;;5.30;76.29;96898.69;6186739;23;20021;-84
2020/12/29 11:33:26;;;;;;;31.88;19.95;;;;;;;5.32;76.45;96899.41;6160243;23;20025;-84
2020/12/29 11:35:52;;;;;;;32.30;20.52;;;;;;;5.32;76.57;96898.59;6186891;23;20036;-84
2020/12/29 11:38:22;;;;;;;30.70;19.48;;;;;;;5.33;76.42;96902.84;6160571;23;20059;-84
2020/12/29 11:40:49;;;;;;;35.35;22.48;;;;;;;5.32;76.14;96901.19;6160748;23;20025;-84
2020/12/29 11:43:16;;;;;;;27.92;20.02;;;;;;;5.32;76.42;96904.63;6186559;23;20025;-84